sensor_id;sensor_type;location;lat;lon;timestamp;pressure;altitude;pressure_sealevel;temperature;humidity
21357;BME280;10836;53.068;18.234;2023-07-29T00:01:56;100351.34;;;12.62;100.00
21357;BME280;10836;53.068;18.234;2023-07-29T00:04:23;100351.34;;;12.62;100.00
21357;BME280;10836;53.068;18.234;2023-07-29T00:06:50;100342.69;;;12.55;100.00
21357;BME280;10836;53.068;18.234;2023-07-29T00:09:17;100345.72;;;12.54;100.00
21357;BME280;10836;53.068;18.234;2023-07-29T00:11:44;100350.91;;;12.55;100.00
21357;BME280;10836;53.068;18.234;2023-07-29T00:14:11;100349.88;;;12.51;100.00
21357;BME280;10836;53.068;18.234;2023-07-29T00:16:38;100352.69;;;12.46;100.00
21357;BME280;10836;53.068;18.234;2023-07-29T00:19:06;100346.44;;;12.41;100.00
21357;BME280;10836;53.068;18.234;2023-07-29T00:21:33;100347.31;;;12.36;100.00
21357;BME280;10836;53.068;18.234;2023-07-29T00:24:00;100342.28;;;12.24;100.00
21357;BME280;10836;53.068;18.234;2023-07-29T00:26:27;100344.44;;;12.27;100.00
21357;BME280;10836;53.068;18.234;2023-07-29T00:28:56;100352.94;;;12.26;100.00
21357;BME280;10836;53.068;18.234;2023-07-29T00:31:23;100344.78;;;12.21;100.00
21357;BME280;10836;53.068;18.234;2023-07-29T00:33:50;100341.50;;;12.19;100.00
21357;BME280;10836;53.068;18.234;2023-07-29T00:36:19;100345.81;;;12.25;100.00
21357;BME280;10836;53.068;18.234;2023-07-29T00:38:47;100355.72;;;12.21;100.00
21357;BME280;10836;53.068;18.234;2023-07-29T00:41:15;100356.88;;;12.15;100.00
21357;BME280;10836;53.068;18.234;2023-07-29T00:43:42;100356.22;;;12.04;100.00
21357;BME280;10836;53.068;18.234;2023-07-29T00:46:09;100363.56;;;12.09;100.00
21357;BME280;10836;53.068;18.234;2023-07-29T00:48:37;100361.41;;;12.06;100.00
21357;BME280;10836;53.068;18.234;2023-07-29T00:51:04;100362.03;;;11.97;100.00
21357;BME280;10836;53.068;18.234;2023-07-29T00:53:31;100355.84;;;11.87;100.00
21357;BME280;10836;53.068;18.234;2023-07-29T00:55:58;100366.03;;;11.81;100.00
21357;BME280;10836;53.068;18.234;2023-07-29T00:58:26;100357.59;;;11.78;100.00
21357;BME280;10836;53.068;18.234;2023-07-29T01:00:53;100368.25;;;11.74;100.00
21357;BME280;10836;53.068;18.234;2023-07-29T01:03:21;100355.16;;;11.71;100.00
21357;BME280;10836;53.068;18.234;2023-07-29T01:06:01;100358.97;;;11.75;100.00
21357;BME280;10836;53.068;18.234;2023-07-29T01:13:58;100360.13;;;11.69;100.00
21357;BME280;10836;53.068;18.234;2023-07-29T01:19:06;100350.94;;;11.60;100.00
21357;BME280;10836;53.068;18.234;2023-07-29T01:21:36;100356.41;;;11.60;100.00
21357;BME280;10836;53.068;18.234;2023-07-29T01:24:04;100353.72;;;11.55;100.00
21357;BME280;10836;53.068;18.234;2023-07-29T01:26:31;100348.25;;;11.55;100.00
21357;BME280;10836;53.068;18.234;2023-07-29T01:28:59;100348.81;;;11.52;100.00
21357;BME280;10836;53.068;18.234;2023-07-29T01:31:44;100341.72;;;11.51;100.00
21357;BME280;10836;53.068;18.234;2023-07-29T01:34:26;100340.66;;;11.47;100.00
21357;BME280;10836;53.068;18.234;2023-07-29T01:36:57;100342.78;;;11.55;100.00
21357;BME280;10836;53.068;18.234;2023-07-29T01:39:29;100340.31;;;11.53;100.00
21357;BME280;10836;53.068;18.234;2023-07-29T01:41:59;100331.41;;;11.43;100.00
21357;BME280;10836;53.068;18.234;2023-07-29T01:44:28;100332.84;;;11.35;100.00
21357;BME280;10836;53.068;18.234;2023-07-29T01:46:59;100337.69;;;11.14;100.00
21357;BME280;10836;53.068;18.234;2023-07-29T01:49:26;100331.06;;;11.20;100.00
21357;BME280;10836;53.068;18.234;2023-07-29T01:51:53;100339.22;;;11.25;100.00
21357;BME280;10836;53.068;18.234;2023-07-29T01:54:20;100343.09;;;11.19;100.00
21357;BME280;10836;53.068;18.234;2023-07-29T01:56:47;100338.25;;;11.11;100.00
21357;BME280;10836;53.068;18.234;2023-07-29T01:59:14;100351.53;;;10.89;100.00
21357;BME280;10836;53.068;18.234;2023-07-29T02:01:42;100347.13;;;10.93;100.00
21357;BME280;10836;53.068;18.234;2023-07-29T02:04:09;100348.81;;;10.84;100.00
21357;BME280;10836;53.068;18.234;2023-07-29T02:06:36;100360.81;;;10.88;100.00
21357;BME280;10836;53.068;18.234;2023-07-29T02:09:04;100350.81;;;10.78;100.00
21357;BME280;10836;53.068;18.234;2023-07-29T02:11:31;100356.06;;;10.64;100.00
21357;BME280;10836;53.068;18.234;2023-07-29T02:13:59;100357.25;;;10.48;100.00
21357;BME280;10836;53.068;18.234;2023-07-29T02:16:26;100361.00;;;10.57;100.00
21357;BME280;10836;53.068;18.234;2023-07-29T02:18:54;100365.34;;;10.63;100.00
21357;BME280;10836;53.068;18.234;2023-07-29T02:21:22;100368.34;;;10.67;100.00
21357;BME280;10836;53.068;18.234;2023-07-29T02:23:49;100379.88;;;10.54;100.00
21357;BME280;10836;53.068;18.234;2023-07-29T02:26:17;100365.72;;;10.47;100.00
21357;BME280;10836;53.068;18.234;2023-07-29T02:28:44;100363.28;;;10.40;100.00
21357;BME280;10836;53.068;18.234;2023-07-29T02:31:21;100361.13;;;10.37;100.00
21357;BME280;10836;53.068;18.234;2023-07-29T02:33:49;100367.16;;;10.34;100.00
21357;BME280;10836;53.068;18.234;2023-07-29T02:36:17;100371.47;;;10.40;100.00
21357;BME280;10836;53.068;18.234;2023-07-29T02:38:45;100368.78;;;10.35;100.00
21357;BME280;10836;53.068;18.234;2023-07-29T02:41:13;100372.81;;;10.43;100.00
21357;BME280;10836;53.068;18.234;2023-07-29T02:43:42;100375.81;;;10.46;100.00
21357;BME280;10836;53.068;18.234;2023-07-29T02:46:10;100371.47;;;10.40;100.00
21357;BME280;10836;53.068;18.234;2023-07-29T02:48:37;100374.28;;;10.30;100.00
21357;BME280;10836;53.068;18.234;2023-07-29T02:51:04;100380.31;;;10.22;100.00
21357;BME280;10836;53.068;18.234;2023-07-29T02:53:31;100372.94;;;10.22;100.00
21357;BME280;10836;53.068;18.234;2023-07-29T02:55:58;100381.94;;;10.13;100.00
21357;BME280;10836;53.068;18.234;2023-07-29T02:58:25;100387.94;;;10.20;100.00
21357;BME280;10836;53.068;18.234;2023-07-29T03:00:53;100386.84;;;10.21;100.00
21357;BME280;10836;53.068;18.234;2023-07-29T03:03:20;100379.75;;;10.15;100.00
21357;BME280;10836;53.068;18.234;2023-07-29T03:05:47;100386.88;;;10.06;100.00
21357;BME280;10836;53.068;18.234;2023-07-29T03:08:14;100386.31;;;10.09;100.00
21357;BME280;10836;53.068;18.234;2023-07-29T03:10:41;100398.03;;;10.09;100.00
21357;BME280;10836;53.068;18.234;2023-07-29T03:13:09;100396.13;;;10.15;100.00
21357;BME280;10836;53.068;18.234;2023-07-29T03:15:35;100393.66;;;10.23;100.00
21357;BME280;10836;53.068;18.234;2023-07-29T03:18:03;100402.66;;;10.19;100.00
21357;BME280;10836;53.068;18.234;2023-07-29T03:20:29;100403.75;;;10.13;100.00
21357;BME280;10836;53.068;18.234;2023-07-29T03:22:57;100396.13;;;10.15;100.00
21357;BME280;10836;53.068;18.234;2023-07-29T03:25:24;100395.31;;;10.04;100.00
21357;BME280;10836;53.068;18.234;2023-07-29T03:27:51;100381.41;;;10.06;100.00
21357;BME280;10836;53.068;18.234;2023-07-29T03:30:22;100391.78;;;10.09;100.00
21357;BME280;10836;53.068;18.234;2023-07-29T03:32:50;100387.94;;;10.20;100.00
21357;BME280;10836;53.068;18.234;2023-07-29T03:35:17;100391.75;;;10.29;100.00
21357;BME280;10836;53.068;18.234;2023-07-29T03:37:45;100395.53;;;10.33;100.00
21357;BME280;10836;53.068;18.234;2023-07-29T03:40:12;100400.44;;;10.36;100.00
21357;BME280;10836;53.068;18.234;2023-07-29T03:42:39;100409.69;;;10.40;100.00
21357;BME280;10836;53.068;18.234;2023-07-29T03:45:06;100399.09;;;10.28;100.00
21357;BME280;10836;53.068;18.234;2023-07-29T03:47:33;100387.91;;;10.35;100.00
21357;BME280;10836;53.068;18.234;2023-07-29T03:50:02;100393.84;;;10.42;100.00
21357;BME280;10836;53.068;18.234;2023-07-29T03:52:29;100399.09;;;10.33;100.00
21357;BME280;10836;53.068;18.234;2023-07-29T03:54:56;100403.72;;;10.38;100.00
21357;BME280;10836;53.068;18.234;2023-07-29T03:57:23;100396.53;;;10.52;100.00
21357;BME280;10836;53.068;18.234;2023-07-29T03:59:50;100392.66;;;10.63;100.00
21357;BME280;10836;53.068;18.234;2023-07-29T04:02:17;100394.78;;;10.77;100.00
21357;BME280;10836;53.068;18.234;2023-07-29T04:04:44;100400.69;;;10.89;100.00
21357;BME280;10836;53.068;18.234;2023-07-29T04:07:14;100398.44;;;11.01;100.00
21357;BME280;10836;53.068;18.234;2023-07-29T04:09:41;100402.44;;;11.14;100.00
21357;BME280;10836;53.068;18.234;2023-07-29T04:12:10;100403.63;;;11.37;100.00
21357;BME280;10836;53.068;18.234;2023-07-29T04:14:37;100410.69;;;11.43;100.00
21357;BME280;10836;53.068;18.234;2023-07-29T04:17:04;100419.16;;;11.41;100.00
21357;BME280;10836;53.068;18.234;2023-07-29T04:19:31;100430.69;;;11.38;100.00
21357;BME280;10836;53.068;18.234;2023-07-29T04:21:59;100425.16;;;11.43;100.00
21357;BME280;10836;53.068;18.234;2023-07-29T04:24:26;100427.09;;;11.43;100.00
21357;BME280;10836;53.068;18.234;2023-07-29T04:26:53;100431.41;;;11.49;100.00
21357;BME280;10836;53.068;18.234;2023-07-29T04:29:20;100429.72;;;11.58;100.00
21357;BME280;10836;53.068;18.234;2023-07-29T04:31:50;100431.72;;;11.76;100.00
21357;BME280;10836;53.068;18.234;2023-07-29T04:34:18;100433.28;;;11.87;100.00
21357;BME280;10836;53.068;18.234;2023-07-29T04:36:46;100435.63;;;11.99;100.00
21357;BME280;10836;53.068;18.234;2023-07-29T04:39:14;100428.66;;;12.12;100.00
21357;BME280;10836;53.068;18.234;2023-07-29T04:41:42;100430.16;;;12.23;100.00
21357;BME280;10836;53.068;18.234;2023-07-29T04:44:08;100425.63;;;12.37;100.00
21357;BME280;10836;53.068;18.234;2023-07-29T04:46:36;100433.66;;;12.52;100.00
21357;BME280;10836;53.068;18.234;2023-07-29T04:49:04;100437.00;;;12.68;100.00
21357;BME280;10836;53.068;18.234;2023-07-29T04:51:31;100439.09;;;12.76;100.00
21357;BME280;10836;53.068;18.234;2023-07-29T04:54:00;100440.38;;;12.84;100.00
21357;BME280;10836;53.068;18.234;2023-07-29T04:56:27;100436.44;;;12.90;100.00
21357;BME280;10836;53.068;18.234;2023-07-29T04:58:54;100434.81;;;13.08;100.00
21357;BME280;10836;53.068;18.234;2023-07-29T05:01:21;100433.31;;;13.15;100.00
21357;BME280;10836;53.068;18.234;2023-07-29T05:03:48;100440.47;;;13.35;100.00
21357;BME280;10836;53.068;18.234;2023-07-29T05:06:15;100437.66;;;13.40;100.00
21357;BME280;10836;53.068;18.234;2023-07-29T05:08:42;100435.66;;;13.59;100.00
21357;BME280;10836;53.068;18.234;2023-07-29T05:11:09;100442.31;;;13.72;100.00
21357;BME280;10836;53.068;18.234;2023-07-29T05:13:36;100446.09;;;13.76;100.00
21357;BME280;10836;53.068;18.234;2023-07-29T05:16:04;100436.16;;;13.80;100.00
21357;BME280;10836;53.068;18.234;2023-07-29T05:18:32;100432.50;;;13.98;100.00
21357;BME280;10836;53.068;18.234;2023-07-29T05:20:59;100429.69;;;14.17;100.00
21357;BME280;10836;53.068;18.234;2023-07-29T05:23:27;100435.41;;;14.21;100.00
21357;BME280;10836;53.068;18.234;2023-07-29T05:25:54;100438.25;;;14.43;100.00
21357;BME280;10836;53.068;18.234;2023-07-29T05:28:21;100440.50;;;14.55;100.00
21357;BME280;10836;53.068;18.234;2023-07-29T05:30:48;100438.25;;;14.71;100.00
21357;BME280;10836;53.068;18.234;2023-07-29T05:33:15;100440.56;;;14.91;100.00
21357;BME280;10836;53.068;18.234;2023-07-29T05:35:43;100447.97;;;15.04;100.00
21357;BME280;10836;53.068;18.234;2023-07-29T05:38:10;100445.28;;;15.13;100.00
21357;BME280;10836;53.068;18.234;2023-07-29T05:40:37;100448.28;;;15.25;100.00
21357;BME280;10836;53.068;18.234;2023-07-29T05:43:05;100444.63;;;15.52;100.00
21357;BME280;10836;53.068;18.234;2023-07-29T05:45:32;100439.56;;;15.68;100.00
21357;BME280;10836;53.068;18.234;2023-07-29T05:47:59;100445.28;;;15.71;100.00
21357;BME280;10836;53.068;18.234;2023-07-29T05:50:26;100441.06;;;15.74;100.00
21357;BME280;10836;53.068;18.234;2023-07-29T05:52:53;100436.50;;;15.91;100.00
21357;BME280;10836;53.068;18.234;2023-07-29T05:55:20;100434.81;;;16.13;100.00
21357;BME280;10836;53.068;18.234;2023-07-29T05:57:47;100436.53;;;16.31;100.00
21357;BME280;10836;53.068;18.234;2023-07-29T06:00:14;100439.31;;;16.40;100.00
21357;BME280;10836;53.068;18.234;2023-07-29T06:02:41;100424.91;;;16.43;100.00
21357;BME280;10836;53.068;18.234;2023-07-29T06:05:13;100434.22;;;16.64;100.00
21357;BME280;10836;53.068;18.234;2023-07-29T06:07:41;100441.25;;;16.96;100.00
21357;BME280;10836;53.068;18.234;2023-07-29T06:10:13;100438.53;;;17.22;100.00
21357;BME280;10836;53.068;18.234;2023-07-29T06:12:40;100435.91;;;18.24;100.00
21357;BME280;10836;53.068;18.234;2023-07-29T06:15:08;100437.75;;;20.65;100.00
21357;BME280;10836;53.068;18.234;2023-07-29T06:17:35;100442.44;;;21.53;94.71
21357;BME280;10836;53.068;18.234;2023-07-29T06:20:02;100452.91;;;24.10;82.28
21357;BME280;10836;53.068;18.234;2023-07-29T06:22:29;100453.13;;;24.70;73.66
21357;BME280;10836;53.068;18.234;2023-07-29T06:24:56;100450.31;;;23.59;77.88
21357;BME280;10836;53.068;18.234;2023-07-29T06:27:25;100448.97;;;22.32;82.68
21357;BME280;10836;53.068;18.234;2023-07-29T06:29:52;100440.41;;;20.73;92.40
21357;BME280;10836;53.068;18.234;2023-07-29T06:32:19;100442.97;;;20.66;96.95
21357;BME280;10836;53.068;18.234;2023-07-29T06:34:46;100449.25;;;20.18;96.82
21357;BME280;10836;53.068;18.234;2023-07-29T06:37:13;100451.16;;;20.50;92.38
21357;BME280;10836;53.068;18.234;2023-07-29T06:39:40;100444.94;;;22.30;85.67
21357;BME280;10836;53.068;18.234;2023-07-29T06:42:07;100450.25;;;23.55;75.67
21357;BME280;10836;53.068;18.234;2023-07-29T06:44:35;100448.78;;;24.04;71.32
21357;BME280;10836;53.068;18.234;2023-07-29T06:47:01;100450.94;;;24.56;71.59
21357;BME280;10836;53.068;18.234;2023-07-29T06:49:28;100451.47;;;23.39;75.60
21357;BME280;10836;53.068;18.234;2023-07-29T06:51:55;100442.78;;;23.05;76.85
21357;BME280;10836;53.068;18.234;2023-07-29T06:54:25;100449.06;;;24.18;73.77
21357;BME280;10836;53.068;18.234;2023-07-29T06:56:55;100441.50;;;24.41;72.14
21357;BME280;10836;53.068;18.234;2023-07-29T06:59:22;100445.47;;;24.40;74.38
21357;BME280;10836;53.068;18.234;2023-07-29T07:01:51;100448.66;;;23.97;73.49
21357;BME280;10836;53.068;18.234;2023-07-29T07:04:18;100449.75;;;23.92;72.36
21357;BME280;10836;53.068;18.234;2023-07-29T07:06:44;100446.09;;;23.11;75.92
21357;BME280;10836;53.068;18.234;2023-07-29T07:09:12;100433.06;;;22.80;76.73
21357;BME280;10836;53.068;18.234;2023-07-29T07:11:38;100446.44;;;23.09;75.60
21357;BME280;10836;53.068;18.234;2023-07-29T07:14:05;100441.88;;;22.19;77.97
21357;BME280;10836;53.068;18.234;2023-07-29T07:16:32;100440.44;;;22.41;76.02
21357;BME280;10836;53.068;18.234;2023-07-29T07:18:59;100433.25;;;22.55;75.66
21357;BME280;10836;53.068;18.234;2023-07-29T07:21:26;100429.66;;;22.86;79.85
21357;BME280;10836;53.068;18.234;2023-07-29T07:23:53;100427.44;;;22.29;74.09
21357;BME280;10836;53.068;18.234;2023-07-29T07:26:20;100431.25;;;22.72;75.04
21357;BME280;10836;53.068;18.234;2023-07-29T07:28:47;100428.13;;;22.57;73.55
21357;BME280;10836;53.068;18.234;2023-07-29T07:31:14;100422.84;;;23.03;74.64
21357;BME280;10836;53.068;18.234;2023-07-29T07:33:46;100426.88;;;23.06;73.43
21357;BME280;10836;53.068;18.234;2023-07-29T07:36:13;100433.88;;;23.35;68.69
21357;BME280;10836;53.068;18.234;2023-07-29T07:38:40;100427.53;;;23.96;70.13
21357;BME280;10836;53.068;18.234;2023-07-29T07:41:07;100424.81;;;23.99;70.94
21357;BME280;10836;53.068;18.234;2023-07-29T07:43:34;100429.59;;;24.44;63.34
21357;BME280;10836;53.068;18.234;2023-07-29T07:46:01;100424.25;;;24.59;58.64
21357;BME280;10836;53.068;18.234;2023-07-29T07:48:28;100431.50;;;23.95;59.03
21357;BME280;10836;53.068;18.234;2023-07-29T07:50:56;100423.63;;;23.39;63.31
21357;BME280;10836;53.068;18.234;2023-07-29T07:53:23;100426.34;;;23.35;62.67
21357;BME280;10836;53.068;18.234;2023-07-29T07:55:52;100421.50;;;23.32;62.30
21357;BME280;10836;53.068;18.234;2023-07-29T07:58:19;100418.03;;;23.77;61.28
21357;BME280;10836;53.068;18.234;2023-07-29T08:00:46;100418.06;;;24.46;61.30
21357;BME280;10836;53.068;18.234;2023-07-29T08:03:13;100412.22;;;24.54;58.06
21357;BME280;10836;53.068;18.234;2023-07-29T08:05:40;100412.84;;;23.99;60.94
21357;BME280;10836;53.068;18.234;2023-07-29T08:08:07;100411.16;;;23.71;57.79
21357;BME280;10836;53.068;18.234;2023-07-29T08:10:34;100407.31;;;24.02;60.50
21357;BME280;10836;53.068;18.234;2023-07-29T08:13:01;100404.38;;;24.90;55.92
21357;BME280;10836;53.068;18.234;2023-07-29T08:15:28;100405.94;;;24.87;55.12
21357;BME280;10836;53.068;18.234;2023-07-29T08:17:55;100399.69;;;25.28;57.58
21357;BME280;10836;53.068;18.234;2023-07-29T08:20:22;100407.44;;;24.81;53.04
21357;BME280;10836;53.068;18.234;2023-07-29T08:22:49;100409.50;;;24.35;54.15
21357;BME280;10836;53.068;18.234;2023-07-29T08:25:15;100405.00;;;25.70;52.28
21357;BME280;10836;53.068;18.234;2023-07-29T08:27:43;100403.38;;;26.06;54.91
21357;BME280;10836;53.068;18.234;2023-07-29T08:30:10;100397.72;;;26.39;51.36
21357;BME280;10836;53.068;18.234;2023-07-29T08:32:37;100393.19;;;25.83;52.58
21357;BME280;10836;53.068;18.234;2023-07-29T08:35:04;100388.34;;;25.80;51.48
21357;BME280;10836;53.068;18.234;2023-07-29T08:37:31;100382.06;;;25.91;50.93
21357;BME280;10836;53.068;18.234;2023-07-29T08:39:59;100388.19;;;25.33;51.65
21357;BME280;10836;53.068;18.234;2023-07-29T08:42:29;100382.41;;;24.36;55.16
21357;BME280;10836;53.068;18.234;2023-07-29T08:45:04;100383.25;;;25.56;52.48
21357;BME280;10836;53.068;18.234;2023-07-29T08:47:33;100383.69;;;25.25;51.29
21357;BME280;10836;53.068;18.234;2023-07-29T08:50:01;100375.81;;;25.34;50.48
21357;BME280;10836;53.068;18.234;2023-07-29T08:52:29;100370.56;;;25.29;51.52
21357;BME280;10836;53.068;18.234;2023-07-29T08:54:56;100374.22;;;24.24;55.46
21357;BME280;10836;53.068;18.234;2023-07-29T08:57:23;100377.41;;;23.76;56.20
21357;BME280;10836;53.068;18.234;2023-07-29T08:59:51;100369.34;;;23.71;57.15
21357;BME280;10836;53.068;18.234;2023-07-29T09:02:18;100369.88;;;24.79;54.13
21357;BME280;10836;53.068;18.234;2023-07-29T09:04:45;100371.84;;;25.01;52.83
21357;BME280;10836;53.068;18.234;2023-07-29T09:07:12;100367.44;;;25.34;53.43
21357;BME280;10836;53.068;18.234;2023-07-29T09:09:39;100359.97;;;25.78;49.91
21357;BME280;10836;53.068;18.234;2023-07-29T09:12:08;100364.69;;;25.04;52.03
21357;BME280;10836;53.068;18.234;2023-07-29T09:14:35;100368.00;;;24.86;53.38
21357;BME280;10836;53.068;18.234;2023-07-29T09:17:06;100368.78;;;24.08;55.09
21357;BME280;10836;53.068;18.234;2023-07-29T09:19:34;100353.81;;;24.69;54.83
21357;BME280;10836;53.068;18.234;2023-07-29T09:22:01;100357.97;;;25.42;57.20
21357;BME280;10836;53.068;18.234;2023-07-29T09:24:28;100358.50;;;25.58;49.73
21357;BME280;10836;53.068;18.234;2023-07-29T09:26:59;100355.47;;;25.70;51.56
21357;BME280;10836;53.068;18.234;2023-07-29T09:29:28;100351.88;;;26.14;48.49
21357;BME280;10836;53.068;18.234;2023-07-29T09:32:21;100354.00;;;26.93;48.23
21357;BME280;10836;53.068;18.234;2023-07-29T09:34:48;100371.09;;;27.54;45.18
21357;BME280;10836;53.068;18.234;2023-07-29T09:37:17;100357.97;;;26.81;45.12
21357;BME280;10836;53.068;18.234;2023-07-29T09:39:46;100356.38;;;26.80;45.30
21357;BME280;10836;53.068;18.234;2023-07-29T09:42:21;100358.16;;;26.48;47.48
21357;BME280;10836;53.068;18.234;2023-07-29T09:44:49;100349.81;;;26.55;47.45
21357;BME280;10836;53.068;18.234;2023-07-29T09:47:21;100352.88;;;27.01;47.74
21357;BME280;10836;53.068;18.234;2023-07-29T09:49:50;100358.59;;;27.23;46.75
21357;BME280;10836;53.068;18.234;2023-07-29T09:52:18;100352.28;;;26.16;49.13
21357;BME280;10836;53.068;18.234;2023-07-29T09:54:46;100364.88;;;26.36;48.28
21357;BME280;10836;53.068;18.234;2023-07-29T09:57:16;100354.75;;;26.76;51.25
21357;BME280;10836;53.068;18.234;2023-07-29T09:59:55;100344.59;;;27.33;48.10
21357;BME280;10836;53.068;18.234;2023-07-29T10:02:22;100336.06;;;27.01;46.57
21357;BME280;10836;53.068;18.234;2023-07-29T10:04:55;100348.63;;;26.60;46.67
21357;BME280;10836;53.068;18.234;2023-07-29T10:07:24;100343.78;;;26.02;48.80
21357;BME280;10836;53.068;18.234;2023-07-29T10:09:52;100333.91;;;25.71;49.17
21357;BME280;10836;53.068;18.234;2023-07-29T10:12:20;100341.63;;;25.84;50.08
21357;BME280;10836;53.068;18.234;2023-07-29T10:14:49;100339.69;;;25.18;50.92
21357;BME280;10836;53.068;18.234;2023-07-29T10:17:16;100345.97;;;25.08;53.44
21357;BME280;10836;53.068;18.234;2023-07-29T10:19:46;100339.28;;;24.86;51.88
21357;BME280;10836;53.068;18.234;2023-07-29T10:22:17;100338.66;;;24.70;53.55
21357;BME280;10836;53.068;18.234;2023-07-29T10:24:47;100335.78;;;24.63;53.64
21357;BME280;10836;53.068;18.234;2023-07-29T10:27:17;100334.34;;;24.76;54.01
21357;BME280;10836;53.068;18.234;2023-07-29T10:29:45;100326.81;;;25.80;50.91
21357;BME280;10836;53.068;18.234;2023-07-29T10:32:13;100321.22;;;26.28;50.50
21357;BME280;10836;53.068;18.234;2023-07-29T10:34:42;100312.34;;;26.81;47.91
21357;BME280;10836;53.068;18.234;2023-07-29T10:37:09;100307.78;;;27.49;49.24
21357;BME280;10836;53.068;18.234;2023-07-29T10:39:40;100313.38;;;25.97;46.85
21357;BME280;10836;53.068;18.234;2023-07-29T10:42:07;100311.34;;;26.45;46.84
21357;BME280;10836;53.068;18.234;2023-07-29T10:47:31;100302.34;;;26.18;48.39
21357;BME280;10836;53.068;18.234;2023-07-29T10:49:59;100312.47;;;25.85;47.62
21357;BME280;10836;53.068;18.234;2023-07-29T10:55:03;100302.13;;;25.90;48.08
21357;BME280;10836;53.068;18.234;2023-07-29T10:57:33;100310.53;;;26.44;48.65
21357;BME280;10836;53.068;18.234;2023-07-29T11:00:00;100303.22;;;26.29;48.09
21357;BME280;10836;53.068;18.234;2023-07-29T11:02:33;100303.00;;;26.01;48.51
21357;BME280;10836;53.068;18.234;2023-07-29T11:05:17;100295.34;;;26.45;47.15
21357;BME280;10836;53.068;18.234;2023-07-29T11:07:48;100298.16;;;27.43;46.40
21357;BME280;10836;53.068;18.234;2023-07-29T11:10:15;100292.59;;;28.39;43.10
21357;BME280;10836;53.068;18.234;2023-07-29T11:15:18;100299.81;;;28.40;41.93
21357;BME280;10836;53.068;18.234;2023-07-29T11:20:25;100273.31;;;28.52;41.96
21357;BME280;10836;53.068;18.234;2023-07-29T11:22:56;100267.28;;;29.40;41.98
21357;BME280;10836;53.068;18.234;2023-07-29T11:25:25;100266.88;;;28.55;44.67
21357;BME280;10836;53.068;18.234;2023-07-29T11:27:53;100264.69;;;26.08;46.41
21357;BME280;10836;53.068;18.234;2023-07-29T11:30:20;100263.53;;;26.78;47.94
21357;BME280;10836;53.068;18.234;2023-07-29T11:32:49;100265.38;;;27.65;44.29
21357;BME280;10836;53.068;18.234;2023-07-29T11:35:18;100263.69;;;27.39;44.93
21357;BME280;10836;53.068;18.234;2023-07-29T11:37:47;100261.78;;;27.64;43.91
21357;BME280;10836;53.068;18.234;2023-07-29T11:40:19;100255.72;;;28.30;43.78
21357;BME280;10836;53.068;18.234;2023-07-29T11:42:48;100247.97;;;28.62;42.91
21357;BME280;10836;53.068;18.234;2023-07-29T11:45:18;100254.94;;;27.62;43.67
21357;BME280;10836;53.068;18.234;2023-07-29T11:47:45;100248.88;;;27.35;44.16
21357;BME280;10836;53.068;18.234;2023-07-29T11:50:14;100235.28;;;27.97;43.35
21357;BME280;10836;53.068;18.234;2023-07-29T11:52:46;100233.69;;;28.07;44.27
21357;BME280;10836;53.068;18.234;2023-07-29T11:55:14;100225.19;;;28.39;46.13
21357;BME280;10836;53.068;18.234;2023-07-29T11:57:42;100236.47;;;27.29;47.60
21357;BME280;10836;53.068;18.234;2023-07-29T12:00:10;100234.13;;;27.66;47.06
21357;BME280;10836;53.068;18.234;2023-07-29T12:02:41;100226.84;;;27.44;45.60
21357;BME280;10836;53.068;18.234;2023-07-29T12:05:14;100226.03;;;27.33;46.80
21357;BME280;10836;53.068;18.234;2023-07-29T12:07:43;100227.66;;;27.41;47.19
21357;BME280;10836;53.068;18.234;2023-07-29T12:10:11;100211.63;;;28.05;46.29
21357;BME280;10836;53.068;18.234;2023-07-29T12:12:48;100211.16;;;28.39;45.57
21357;BME280;10836;53.068;18.234;2023-07-29T12:15:28;100203.56;;;28.32;45.72
21357;BME280;10836;53.068;18.234;2023-07-29T12:17:57;100207.66;;;27.74;45.50
21357;BME280;10836;53.068;18.234;2023-07-29T12:20:29;100202.44;;;27.48;47.00
21357;BME280;10836;53.068;18.234;2023-07-29T12:22:58;100199.63;;;27.27;46.28
21357;BME280;10836;53.068;18.234;2023-07-29T12:25:28;100184.38;;;27.35;47.19
21357;BME280;10836;53.068;18.234;2023-07-29T12:27:55;100190.41;;;27.76;47.52
21357;BME280;10836;53.068;18.234;2023-07-29T12:30:23;100181.97;;;27.94;46.17
21357;BME280;10836;53.068;18.234;2023-07-29T12:32:52;100174.78;;;27.86;45.70
21357;BME280;10836;53.068;18.234;2023-07-29T12:35:19;100173.13;;;28.13;46.12
21357;BME280;10836;53.068;18.234;2023-07-29T12:37:46;100181.88;;;28.40;47.12
21357;BME280;10836;53.068;18.234;2023-07-29T12:40:25;100180.00;;;27.44;47.37
21357;BME280;10836;53.068;18.234;2023-07-29T12:42:53;100180.75;;;27.02;46.41
21357;BME280;10836;53.068;18.234;2023-07-29T12:45:20;100178.75;;;26.99;48.19
21357;BME280;10836;53.068;18.234;2023-07-29T12:47:50;100167.97;;;27.15;48.16
21357;BME280;10836;53.068;18.234;2023-07-29T12:50:17;100163.50;;;26.93;46.82
21357;BME280;10836;53.068;18.234;2023-07-29T12:52:44;100155.56;;;27.27;47.85
21357;BME280;10836;53.068;18.234;2023-07-29T12:55:11;100158.72;;;26.97;48.24
21357;BME280;10836;53.068;18.234;2023-07-29T12:57:43;100155.47;;;26.81;47.23
21357;BME280;10836;53.068;18.234;2023-07-29T13:00:11;100160.19;;;26.56;48.46